Time;durP1;ratioP1;P1;durP2;ratioP2;P2;SDS_P1;SDS_P2;PMS_P1;PMS_P2;Temp;Humidity;BMP_temperature;BMP_pressure;BME280_temperature;BME280_humidity;BME280_pressure;Samples;Min_cycle;Max_cycle;Signal;HPM_P1;HPM_P2
2022/02/28 00:01:33;;;;;;;;;;;;;;;4.82;70.33;101203.66;4995535;28;19980;-63
2022/02/28 00:04:19;;;;;;;;;;;;;;;4.81;70.22;101204.44;4996268;28;20448;-63
2022/02/28 00:07:09;;;;;;;;;;;;;;;4.82;70.00;101197.63;4996345;28;20020;-64
2022/02/28 00:09:53;;;;;;;;;;;;;;;4.81;70.47;101201.00;4995457;28;19925;-63
2022/02/28 00:12:37;;;;;;;;;;;;;;;4.82;70.36;101213.06;4996251;28;20013;-63
2022/02/28 00:15:21;;;;;;;;;;;;;;;4.79;70.00;101218.00;4996678;28;19925;-64
2022/02/28 00:18:05;;;;;;;;;;;;;;;4.76;70.28;101216.13;4996339;28;19925;-63
2022/02/28 00:20:49;;;;;;;;;;;;;;;4.77;70.12;101228.16;4996537;28;19925;-63
2022/02/28 00:23:35;;;;;;;;;;;;;;;4.77;69.38;101224.72;4996478;28;19972;-63
2022/02/28 00:26:21;;;;;;;;;;;;;;;4.76;69.61;101233.22;4995871;28;19924;-64
2022/02/28 00:29:05;;;;;;;;;;;;;;;4.73;69.55;101237.38;4995356;28;19928;-65
2022/02/28 00:31:51;;;;;;;;;;;;;;;4.72;69.53;101239.88;4995906;28;19940;-63
2022/02/28 00:34:35;;;;;;;;;;;;;;;4.71;70.10;101246.69;4995926;28;20060;-64
2022/02/28 00:37:19;;;;;;;;;;;;;;;4.72;69.77;101257.84;4996047;28;19924;-63
2022/02/28 00:40:04;;;;;;;;;;;;;;;4.71;69.69;101248.38;4994889;28;19929;-63
2022/02/28 00:42:48;;;;;;;;;;;;;;;4.69;69.89;101253.41;4995479;28;19964;-64
2022/02/28 00:45:32;;;;;;;;;;;;;;;4.69;69.52;101258.53;4995416;28;19973;-63
2022/02/28 00:48:15;;;;;;;;;;;;;;;4.68;68.81;101259.34;4995617;28;20288;-64
2022/02/28 00:50:59;;;;;;;;;;;;;;;4.69;69.16;101257.66;4995255;28;19925;-64
2022/02/28 00:53:45;;;;;;;;;;;;;;;4.69;69.57;101249.97;4994481;28;20013;-63
2022/02/28 00:56:28;;;;;;;;;;;;;;;4.70;69.49;101254.31;4995509;28;19973;-62
2022/02/28 00:59:12;;;;;;;;;;;;;;;4.70;69.13;101247.47;4995335;28;19924;-64
2022/02/28 01:01:59;;;;;;;;;;;;;;;4.71;69.81;101256.09;4994530;28;19971;-64
2022/02/28 01:04:44;;;;;;;;;;;;;;;4.69;69.43;101248.25;4995169;28;20392;-64
2022/02/28 01:07:27;;;;;;;;;;;;;;;4.69;69.80;101250.84;4995443;28;20431;-64
2022/02/28 01:10:12;;;;;;;;;;;;;;;4.70;69.26;101262.88;4995681;28;19972;-63
2022/02/28 01:12:56;;;;;;;;;;;;;;;4.71;69.67;101262.09;4994216;28;20013;-64
2022/02/28 01:15:40;;;;;;;;;;;;;;;4.72;69.77;101261.28;4995253;28;20391;-64
2022/02/28 01:18:25;;;;;;;;;;;;;;;4.74;69.64;101266.53;4994503;28;20340;-63
2022/02/28 01:21:09;;;;;;;;;;;;;;;4.76;70.05;101269.19;4995530;28;19924;-65
2022/02/28 01:23:54;;;;;;;;;;;;;;;4.75;70.25;101268.28;4995002;28;20439;-64
2022/02/28 01:26:38;;;;;;;;;;;;;;;4.73;69.56;101260.50;4994334;28;20484;-65
2022/02/28 01:29:22;;;;;;;;;;;;;;;4.70;69.38;101262.88;4995392;28;19964;-63
2022/02/28 01:32:09;;;;;;;;;;;;;;;4.68;69.07;101261.03;4994901;28;19928;-64
2022/02/28 01:34:58;;;;;;;;;;;;;;;4.66;69.18;101268.66;4993766;28;20500;-63
2022/02/28 01:37:45;;;;;;;;;;;;;;;4.63;69.13;101263.34;4994031;28;20005;-63
2022/02/28 01:40:29;;;;;;;;;;;;;;;4.63;68.87;101257.28;4993947;28;19925;-62
2022/02/28 01:43:13;;;;;;;;;;;;;;;4.63;69.23;101254.72;4994310;28;19925;-63
2022/02/28 01:45:59;;;;;;;;;;;;;;;4.61;69.58;101254.66;4994587;28;19925;-63
2022/02/28 01:48:43;;;;;;;;;;;;;;;4.65;68.98;101260.84;4995143;28;20333;-63
2022/02/28 01:51:27;;;;;;;;;;;;;;;4.67;69.51;101266.97;4994484;28;20387;-63
2022/02/28 01:54:13;;;;;;;;;;;;;;;4.68;69.59;101266.16;4994651;28;20015;-63
2022/02/28 01:56:57;;;;;;;;;;;;;;;4.67;69.37;101257.56;4993428;28;20328;-63
2022/02/28 01:59:41;;;;;;;;;;;;;;;4.67;68.95;101264.41;4994879;28;19924;-64
2022/02/28 02:02:28;;;;;;;;;;;;;;;4.67;69.57;101267.84;4993048;28;19949;-63
2022/02/28 02:05:14;;;;;;;;;;;;;;;4.68;69.07;101266.16;4993786;28;19924;-63
2022/02/28 02:07:58;;;;;;;;;;;;;;;4.68;69.55;101266.16;4993430;28;19972;-63
2022/02/28 02:10:43;;;;;;;;;;;;;;;4.68;69.02;101274.75;4993549;28;19925;-64
2022/02/28 02:13:27;;;;;;;;;;;;;;;4.69;68.91;101270.50;4993420;28;19925;-63
2022/02/28 02:16:11;;;;;;;;;;;;;;;4.72;69.83;101275.84;4993853;28;19924;-64
2022/02/28 02:18:55;;;;;;;;;;;;;;;4.71;69.62;101267.22;4994071;28;20412;-64
2022/02/28 02:21:39;;;;;;;;;;;;;;;4.71;70.08;101262.09;4994552;28;19923;-63
2022/02/28 02:24:25;;;;;;;;;;;;;;;4.70;69.99;101262.88;4994018;28;20440;-64
2022/02/28 02:27:12;;;;;;;;;;;;;;;4.70;69.21;101257.75;4994607;28;19924;-63
2022/02/28 02:29:56;;;;;;;;;;;;;;;4.71;69.75;101258.66;4993326;28;19928;-63
2022/02/28 02:32:42;;;;;;;;;;;;;;;4.70;69.96;101260.31;4994138;28;19980;-64
2022/02/28 02:35:27;;;;;;;;;;;;;;;4.69;68.98;101263.69;4994561;28;20399;-63
2022/02/28 02:38:13;;;;;;;;;;;;;;;4.69;69.56;101260.25;4993633;28;20447;-63
2022/02/28 02:40:58;;;;;;;;;;;;;;;4.71;69.34;101261.22;4993242;28;20012;-64
2022/02/28 02:43:45;;;;;;;;;;;;;;;4.71;69.76;101256.09;4993540;28;20272;-64
2022/02/28 02:46:28;;;;;;;;;;;;;;;4.73;69.83;101259.63;4994194;28;20288;-64
2022/02/28 02:49:14;;;;;;;;;;;;;;;4.73;70.23;101254.50;4993924;28;19924;-63
2022/02/28 02:51:58;;;;;;;;;;;;;;;4.72;69.73;101261.28;4993022;28;20280;-64
2022/02/28 02:54:44;;;;;;;;;;;;;;;4.73;69.81;101254.50;4994532;28;19925;-63
2022/02/28 02:57:28;;;;;;;;;;;;;;;4.72;68.98;101242.44;4993916;28;19925;-63
2022/02/28 03:00:13;;;;;;;;;;;;;;;4.71;69.73;101241.53;4993936;28;20391;-64
2022/02/28 03:02:57;;;;;;;;;;;;;;;4.71;70.25;101240.66;4993681;28;19924;-63
2022/02/28 03:05:41;;;;;;;;;;;;;;;4.69;69.75;101245.69;4993800;28;20396;-64
2022/02/28 03:08:25;;;;;;;;;;;;;;;4.69;70.14;101234.56;4997557;28;19924;-63
2022/02/28 03:11:09;;;;;;;;;;;;;;;4.70;69.75;101249.16;4996356;28;20396;-63
2022/02/28 03:13:53;;;;;;;;;;;;;;;4.70;69.57;101252.59;4997682;28;20015;-64
2022/02/28 03:16:37;;;;;;;;;;;;;;;4.72;69.66;101250.16;4997680;28;20435;-63
2022/02/28 03:19:24;;;;;;;;;;;;;;;4.73;69.98;101257.06;4996274;28;19944;-64
2022/02/28 03:22:08;;;;;;;;;;;;;;;4.74;70.23;101251.13;4997582;28;19972;-63
2022/02/28 03:24:52;;;;;;;;;;;;;;;4.76;69.42;101258.91;4997532;28;19924;-63
2022/02/28 03:27:36;;;;;;;;;;;;;;;4.75;70.26;101257.13;4997534;28;20001;-64
2022/02/28 03:30:20;;;;;;;;;;;;;;;4.74;70.21;101258.84;4997209;28;19924;-64
2022/02/28 03:33:04;;;;;;;;;;;;;;;4.73;69.64;101259.63;4996709;28;19972;-64
2022/02/28 03:35:48;;;;;;;;;;;;;;;4.73;70.39;101262.19;4997025;28;19925;-65
2022/02/28 03:38:32;;;;;;;;;;;;;;;4.72;70.16;101257.84;4995967;28;20388;-64
2022/02/28 03:41:15;;;;;;;;;;;;;;;4.70;70.03;101252.59;4996501;28;19975;-63
2022/02/28 03:43:59;;;;;;;;;;;;;;;4.68;69.67;101254.19;4996796;28;19924;-64
2022/02/28 03:46:46;;;;;;;;;;;;;;;4.69;69.59;101255.97;4996658;28;19925;-63
2022/02/28 03:49:33;;;;;;;;;;;;;;;4.69;70.39;101255.97;4996661;28;20012;-64
2022/02/28 03:52:17;;;;;;;;;;;;;;;4.69;70.01;101255.09;4996630;28;19924;-63
2022/02/28 03:55:01;;;;;;;;;;;;;;;4.68;69.95;101248.19;4995605;28;19929;-63
2022/02/28 03:57:45;;;;;;;;;;;;;;;4.65;70.44;101246.34;4996071;28;20005;-63
2022/02/28 04:00:32;;;;;;;;;;;;;;;4.65;69.96;101253.13;4996206;28;19967;-64
2022/02/28 04:03:16;;;;;;;;;;;;;;;4.64;69.90;101249.69;4996837;28;19925;-64
2022/02/28 04:06:03;;;;;;;;;;;;;;;4.65;70.17;101232.59;4995674;28;19925;-64
2022/02/28 04:08:47;;;;;;;;;;;;;;;4.64;69.95;101243.66;4995235;28;19924;-64
2022/02/28 04:11:31;;;;;;;;;;;;;;;4.64;69.84;101243.66;4996750;28;19926;-63
2022/02/28 04:14:15;;;;;;;;;;;;;;;4.63;69.79;101231.63;4996710;28;19940;-64
2022/02/28 04:16:59;;;;;;;;;;;;;;;4.62;69.84;101245.25;4996184;28;20388;-64
2022/02/28 04:19:46;;;;;;;;;;;;;;;4.63;70.14;101231.63;4995802;28;19925;-64
2022/02/28 04:22:30;;;;;;;;;;;;;;;4.61;69.86;101241.81;4995830;28;19968;-63
2022/02/28 04:25:14;;;;;;;;;;;;;;;4.62;69.52;101234.97;4995918;28;19925;-64
2022/02/28 04:27:58;;;;;;;;;;;;;;;4.59;69.46;101217.72;4994756;28;19972;-63
2022/02/28 04:30:42;;;;;;;;;;;;;;;4.57;70.00;101225.34;4996390;28;20328;-63
2022/02/28 04:33:26;;;;;;;;;;;;;;;4.57;69.83;101225.34;4995328;28;19972;-63
2022/02/28 04:36:12;;;;;;;;;;;;;;;4.56;69.79;101225.22;4995206;28;19924;-64
2022/02/28 04:38:57;;;;;;;;;;;;;;;4.56;69.87;101231.28;4994753;28;20388;-63
2022/02/28 04:41:41;;;;;;;;;;;;;;;4.57;69.31;101227.00;4996285;28;20277;-64
2022/02/28 04:44:25;;;;;;;;;;;;;;;4.57;69.11;101235.63;4995731;28;19941;-63
2022/02/28 04:47:09;;;;;;;;;;;;;;;4.57;69.71;101243.31;4994805;28;19925;-63
2022/02/28 04:49:53;;;;;;;;;;;;;;;4.56;69.91;101233.84;4995877;28;19925;-64
2022/02/28 04:52:37;;;;;;;;;;;;;;;4.57;70.17;101242.41;4994809;28;19924;-63
2022/02/28 04:55:22;;;;;;;;;;;;;;;4.57;69.72;101239.84;4994411;28;19925;-63
2022/02/28 04:58:07;;;;;;;;;;;;;;;4.57;69.84;101232.13;4995759;28;19924;-64
2022/02/28 05:00:50;;;;;;;;;;;;;;;4.57;69.75;101239.84;4995181;28;19983;-63
2022/02/28 05:03:34;;;;;;;;;;;;;;;4.57;69.38;101237.28;4994806;28;19941;-63
2022/02/28 05:06:18;;;;;;;;;;;;;;;4.56;69.39;101231.28;4995000;28;20403;-64
2022/02/28 05:09:02;;;;;;;;;;;;;;;4.55;69.44;101223.44;4994630;28;19925;-63
2022/02/28 05:11:46;;;;;;;;;;;;;;;4.57;70.04;101227.91;4995210;28;19928;-64
2022/02/28 05:14:29;;;;;;;;;;;;;;;4.57;69.51;101229.56;4995058;28;19923;-63
2022/02/28 05:17:13;;;;;;;;;;;;;;;4.56;69.83;101231.28;4994774;28;20443;-64
2022/02/28 05:19:57;;;;;;;;;;;;;;;4.54;69.47;101225.16;4995580;28;20388;-63
2022/02/28 05:22:44;;;;;;;;;;;;;;;4.55;70.06;101229.50;4994963;28;19925;-63
2022/02/28 05:25:28;;;;;;;;;;;;;;;4.56;69.79;101227.78;4994753;28;19989;-64
2022/02/28 05:28:12;;;;;;;;;;;;;;;4.55;69.44;101226.03;4994507;28;19925;-64
2022/02/28 05:30:56;;;;;;;;;;;;;;;4.54;69.81;101235.41;4995088;28;19976;-64
2022/02/28 05:33:39;;;;;;;;;;;;;;;4.55;69.60;101233.72;4994086;28;19968;-64
2022/02/28 05:36:23;;;;;;;;;;;;;;;4.54;69.82;101231.94;4993893;28;19999;-65
2022/02/28 05:39:07;;;;;;;;;;;;;;;4.54;69.74;101247.34;4995160;28;20028;-64
2022/02/28 05:41:51;;;;;;;;;;;;;;;4.55;69.75;101249.13;4995217;28;19948;-64
2022/02/28 05:44:37;;;;;;;;;;;;;;;4.55;69.26;101242.34;4994476;28;19968;-63
2022/02/28 05:47:24;;;;;;;;;;;;;;;4.55;70.05;101239.75;4994328;28;19968;-63
2022/02/28 05:50:10;;;;;;;;;;;;;;;4.56;70.34;101238.97;4993745;28;19924;-65
2022/02/28 05:52:54;;;;;;;;;;;;;;;4.57;69.63;101251.00;4993924;28;19925;-63
2022/02/28 05:55:38;;;;;;;;;;;;;;;4.59;70.24;101251.09;4994945;28;19925;-64
2022/02/28 05:58:22;;;;;;;;;;;;;;;4.60;69.88;101252.88;4994120;28;20297;-64
2022/02/28 06:01:06;;;;;;;;;;;;;;;4.60;70.03;101250.31;4993865;28;20316;-64
2022/02/28 06:03:50;;;;;;;;;;;;;;;4.59;70.17;101250.22;4995030;28;19924;-63
2022/02/28 06:06:33;;;;;;;;;;;;;;;4.59;70.23;101252.78;4994042;28;19963;-63
2022/02/28 06:09:20;;;;;;;;;;;;;;;4.59;70.31;101245.97;4994323;28;20064;-64
2022/02/28 06:12:04;;;;;;;;;;;;;;;4.61;70.34;101254.66;4994467;28;20028;-64
2022/02/28 06:14:47;;;;;;;;;;;;;;;4.60;70.58;101255.44;4994759;28;20316;-63
2022/02/28 06:17:32;;;;;;;;;;;;;;;4.61;70.40;101261.44;4993892;28;19925;-63
2022/02/28 06:20:16;;;;;;;;;;;;;;;4.61;70.16;101254.66;4994384;28;20451;-64
2022/02/28 06:23:03;;;;;;;;;;;;;;;4.63;70.50;101254.72;4994054;28;19963;-63
2022/02/28 06:25:47;;;;;;;;;;;;;;;4.63;70.15;101257.28;4993957;28;19924;-63
2022/02/28 06:28:32;;;;;;;;;;;;;;;4.63;70.59;101259.84;4994462;28;19925;-63
2022/02/28 06:31:16;;;;;;;;;;;;;;;4.63;71.09;101250.50;4993138;28;19928;-63
2022/02/28 06:34:00;;;;;;;;;;;;;;;4.61;70.59;101254.66;4994084;28;20009;-63
2022/02/28 06:36:44;;;;;;;;;;;;;;;4.61;70.55;101253.75;4994430;28;19940;-64
2022/02/28 06:39:28;;;;;;;;;;;;;;;4.61;70.28;101246.03;4994094;28;19924;-64
2022/02/28 06:42:12;;;;;;;;;;;;;;;4.61;70.61;101258.88;4996335;28;19952;-63
2022/02/28 06:44:58;;;;;;;;;;;;;;;4.60;70.66;101250.31;4998191;28;19968;-63
2022/02/28 06:47:48;;;;;;;;;;;;;;;4.60;70.26;101257.09;4996939;28;19968;-63
2022/02/28 06:50:32;;;;;;;;;;;;;;;4.59;70.34;101250.22;4996821;28;19924;-63
2022/02/28 06:53:18;;;;;;;;;;;;;;;4.56;70.89;101249.25;4997249;28;19956;-63
2022/02/28 06:56:02;;;;;;;;;;;;;;;4.56;70.70;101249.25;4997281;28;20277;-63
2022/02/28 06:58:46;;;;;;;;;;;;;;;4.54;70.06;101247.34;4998137;28;20292;-64
2022/02/28 07:01:33;;;;;;;;;;;;;;;4.52;70.41;101247.28;4997611;28;19980;-63
2022/02/28 07:04:17;;;;;;;;;;;;;;;4.51;70.50;101247.19;4997998;28;19976;-63
2022/02/28 07:07:01;;;;;;;;;;;;;;;4.50;70.11;101250.56;4997634;28;20330;-63
2022/02/28 07:09:48;;;;;;;;;;;;;;;4.51;70.37;101247.19;4997596;28;19925;-63
2022/02/28 07:12:32;;;;;;;;;;;;;;;4.48;70.45;101250.44;4997094;28;19925;-63
2022/02/28 07:15:16;;;;;;;;;;;;;;;4.46;70.38;101248.59;4997452;28;19929;-64
2022/02/28 07:18:00;;;;;;;;;;;;;;;4.45;69.79;101252.81;4997571;28;19924;-63
2022/02/28 07:20:44;;;;;;;;;;;;;;;4.43;69.90;101262.16;4996392;28;20005;-64
2022/02/28 07:23:28;;;;;;;;;;;;;;;4.41;70.09;101251.75;4997661;28;20375;-63
2022/02/28 07:26:12;;;;;;;;;;;;;;;4.40;69.79;101250.00;4996504;28;19972;-63
2022/02/28 07:28:56;;;;;;;;;;;;;;;4.40;70.03;101250.00;4997088;28;19976;-63
2022/02/28 07:31:41;;;;;;;;;;;;;;;4.39;69.96;101253.34;4996852;28;19924;-62
2022/02/28 07:34:25;;;;;;;;;;;;;;;4.39;70.22;101247.34;4995988;28;19925;-63
2022/02/28 07:37:09;;;;;;;;;;;;;;;4.40;70.08;101261.94;4997287;28;19971;-64
2022/02/28 07:39:53;;;;;;;;;;;;;;;4.38;69.68;101263.53;4996901;28;19925;-63
2022/02/28 07:42:37;;;;;;;;;;;;;;;4.38;69.94;101266.09;4996303;28;19929;-63
2022/02/28 07:45:24;;;;;;;;;;;;;;;4.38;70.17;101263.53;4997018;28;19924;-63
2022/02/28 07:48:10;;;;;;;;;;;;;;;4.35;70.08;101266.81;4996319;28;19924;-63
2022/02/28 07:50:54;;;;;;;;;;;;;;;4.35;69.78;101256.53;4995449;28;19923;-63
2022/02/28 07:53:38;;;;;;;;;;;;;;;4.35;70.52;101260.78;4996582;28;19924;-63
2022/02/28 07:56:22;;;;;;;;;;;;;;;4.35;70.49;101266.81;4996635;28;20289;-63
2022/02/28 07:59:06;;;;;;;;;;;;;;;4.34;69.85;101271.84;4997101;28;20392;-63
2022/02/28 08:01:50;;;;;;;;;;;;;;;4.34;69.72;101279.53;4996537;28;19972;-63
2022/02/28 08:04:36;;;;;;;;;;;;;;;4.32;69.47;101287.16;4996715;28;19925;-64
2022/02/28 08:07:23;;;;;;;;;;;;;;;4.32;70.25;101292.28;4995682;28;19924;-63
2022/02/28 08:10:07;;;;;;;;;;;;;;;4.31;70.36;101292.19;4995584;28;20400;-63
2022/02/28 08:12:51;;;;;;;;;;;;;;;4.29;69.41;101293.75;4996269;28;20295;-64
2022/02/28 08:15:37;;;;;;;;;;;;;;;4.26;69.27;101287.66;4996420;28;19925;-63
2022/02/28 08:18:22;;;;;;;;;;;;;;;4.26;69.66;101292.81;4995194;28;19995;-64
2022/02/28 08:21:05;;;;;;;;;;;;;;;4.27;69.72;101293.69;4995400;28;20415;-63
2022/02/28 08:23:49;;;;;;;;;;;;;;;4.27;69.44;101296.25;4995765;28;19968;-63
2022/02/28 08:26:34;;;;;;;;;;;;;;;4.28;69.66;101308.28;4996108;28;19925;-64
2022/02/28 08:29:17;;;;;;;;;;;;;;;4.28;69.32;101300.59;4994889;28;19968;-64
2022/02/28 08:32:04;;;;;;;;;;;;;;;4.29;69.60;101304.03;4995984;28;19924;-63
2022/02/28 08:34:48;;;;;;;;;;;;;;;4.28;70.08;101309.97;4995890;28;19924;-64
2022/02/28 08:37:35;;;;;;;;;;;;;;;4.24;69.19;101299.50;4995088;28;19924;-63
2022/02/28 08:40:19;;;;;;;;;;;;;;;4.26;69.58;101302.16;4994892;28;19924;-64
2022/02/28 08:43:03;;;;;;;;;;;;;;;4.26;69.82;101297.94;4995777;28;19940;-63
2022/02/28 08:45:47;;;;;;;;;;;;;;;4.27;69.63;101301.38;4994917;28;19929;-64
2022/02/28 08:48:30;;;;;;;;;;;;;;;4.28;69.85;101300.59;4996024;28;19941;-63
2022/02/28 08:51:17;;;;;;;;;;;;;;;4.32;69.29;101301.66;4995437;28;19968;-63
2022/02/28 08:54:01;;;;;;;;;;;;;;;4.34;69.72;101300.97;4995508;28;19968;-64
2022/02/28 08:56:44;;;;;;;;;;;;;;;4.37;69.79;101300.25;4994817;28;19945;-63
2022/02/28 08:59:34;;;;;;;;;;;;;;;4.38;69.89;101291.78;4995576;28;20320;-64
2022/02/28 09:02:18;;;;;;;;;;;;;;;4.41;69.92;101300.53;4994227;28;19924;-63
2022/02/28 09:05:05;;;;;;;;;;;;;;;4.45;69.37;101300.72;4994866;28;19972;-64
2022/02/28 09:07:49;;;;;;;;;;;;;;;4.49;69.82;101307.84;4994191;28;19967;-63
2022/02/28 09:10:35;;;;;;;;;;;;;;;4.51;69.93;101308.81;4993875;28;19941;-63
2022/02/28 09:13:19;;;;;;;;;;;;;;;4.55;70.06;101308.19;4995653;28;19925;-63
2022/02/28 09:16:03;;;;;;;;;;;;;;;4.60;69.56;101305.91;4995057;28;20013;-63
2022/02/28 09:18:47;;;;;;;;;;;;;;;4.63;70.43;101309.56;4995269;28;19980;-64
2022/02/28 09:21:36;;;;;;;;;;;;;;;4.66;70.51;101308.84;4995375;28;19924;-63
2022/02/28 09:24:21;;;;;;;;;;;;;;;4.68;70.02;101309.81;4994393;28;20027;-64
2022/02/28 09:27:07;;;;;;;;;;;;;;;4.69;70.19;101303.91;4995097;28;20293;-64
2022/02/28 09:29:51;;;;;;;;;;;;;;;4.71;69.83;101298.03;4995293;28;19924;-63
2022/02/28 09:32:37;;;;;;;;;;;;;;;4.73;70.41;101301.59;4995120;28;20311;-63
2022/02/28 09:35:27;;;;;;;;;;;;;;;4.74;70.34;101287.09;4993877;28;19924;-64
2022/02/28 09:38:14;;;;;;;;;;;;;;;4.78;70.64;101294.16;4994679;28;19968;-63
2022/02/28 09:41:00;;;;;;;;;;;;;;;4.79;70.35;101293.38;4994687;28;19924;-64
2022/02/28 09:43:44;;;;;;;;;;;;;;;4.81;69.94;101291.78;4995210;28;20282;-63
2022/02/28 09:46:28;;;;;;;;;;;;;;;4.83;70.14;101297.91;4994696;28;19924;-63
2022/02/28 09:49:17;;;;;;;;;;;;;;;4.85;70.24;101295.41;4994440;28;20411;-64
2022/02/28 09:52:04;;;;;;;;;;;;;;;4.86;69.93;101300.66;4993711;28;19924;-64
2022/02/28 09:54:48;;;;;;;;;;;;;;;4.88;70.37;101295.59;4994075;28;20012;-63
2022/02/28 09:57:32;;;;;;;;;;;;;;;4.90;70.51;101300.84;4994655;28;19925;-63
2022/02/28 10:00:17;;;;;;;;;;;;;;;4.94;70.53;101300.19;4993949;28;19928;-64
2022/02/28 10:03:02;;;;;;;;;;;;;;;4.97;70.73;101308.09;4994375;28;20400;-63
2022/02/28 10:05:46;;;;;;;;;;;;;;;5.00;70.24;101310.84;4993774;28;19960;-63
2022/02/28 10:08:40;;;;;;;;;;;;;;;5.00;70.68;101314.31;4993639;28;20016;-63
2022/02/28 10:11:24;;;;;;;;;;;;;;;5.02;70.42;101315.28;4993453;28;20395;-64
2022/02/28 10:14:09;;;;;;;;;;;;;;;5.03;70.70;101301.63;4994349;28;19924;-63
2022/02/28 10:17:01;;;;;;;;;;;;;;;5.05;70.78;101290.56;4996106;28;19972;-64
2022/02/28 10:19:46;;;;;;;;;;;;;;;5.05;70.30;101278.63;4997404;28;19999;-64
2022/02/28 10:22:33;;;;;;;;;;;;;;;5.06;70.32;101282.94;4997809;28;20455;-64
2022/02/28 10:25:28;;;;;;;;;;;;;;;5.08;70.77;101281.34;4998489;28;19964;-64
2022/02/28 10:28:14;;;;;;;;;;;;;;;5.07;70.29;101292.41;4997591;28;20403;-64
2022/02/28 10:31:03;;;;;;;;;;;;;;;5.07;69.99;101294.13;4997724;28;19985;-64
2022/02/28 10:33:49;;;;;;;;;;;;;;;5.08;70.39;101303.59;4998364;28;19976;-64
2022/02/28 10:36:33;;;;;;;;;;;;;;;5.09;70.08;101300.22;4997628;28;19972;-64
2022/02/28 10:39:25;;;;;;;;;;;;;;;5.09;70.71;101303.69;4998141;28;20015;-64
2022/02/28 10:42:12;;;;;;;;;;;;;;;5.09;69.94;101293.41;4997461;28;20273;-64
2022/02/28 10:45:15;;;;;;;;;;;;;;;5.10;70.10;101289.16;4997486;28;19928;-63
2022/02/28 10:47:59;;;;;;;;;;;;;;;5.12;70.61;101279.84;4996903;28;19924;-63
2022/02/28 10:50:43;;;;;;;;;;;;;;;5.12;70.45;101277.28;4997824;28;20293;-64
2022/02/28 10:53:27;;;;;;;;;;;;;;;5.11;70.06;101280.66;4998191;28;19968;-63
2022/02/28 10:56:11;;;;;;;;;;;;;;;5.13;70.67;101281.63;4997020;28;19925;-64
2022/02/28 10:59:02;;;;;;;;;;;;;;;5.11;70.02;101276.38;4997742;28;19924;-63
2022/02/28 11:01:51;;;;;;;;;;;;;;;5.11;70.21;101276.38;4997539;28;19928;-63
2022/02/28 11:04:40;;;;;;;;;;;;;;;5.12;69.97;101264.44;4996288;28;19924;-65
2022/02/28 11:07:26;;;;;;;;;;;;;;;5.12;70.64;101272.16;4997009;28;19976;-63
2022/02/28 11:10:16;;;;;;;;;;;;;;;5.12;70.15;101255.03;4996608;28;19925;-64
2022/02/28 11:13:00;;;;;;;;;;;;;;;5.13;70.95;101246.53;4996843;28;19969;-64
2022/02/28 11:15:47;;;;;;;;;;;;;;;5.14;70.60;101248.28;4997860;28;20020;-64
2022/02/28 11:18:37;;;;;;;;;;;;;;;5.13;70.27;101254.22;4996939;28;19924;-64
2022/02/28 11:21:22;;;;;;;;;;;;;;;5.14;70.22;101253.44;4996601;28;19925;-63
2022/02/28 11:24:08;;;;;;;;;;;;;;;5.14;70.12;101247.38;4996324;28;19925;-63
2022/02/28 11:26:52;;;;;;;;;;;;;;;5.14;70.11;101242.25;4996735;28;19924;-64
2022/02/28 11:29:37;;;;;;;;;;;;;;;5.15;70.11;101237.22;4996382;28;20420;-63
2022/02/28 11:32:21;;;;;;;;;;;;;;;5.16;70.58;101243.22;4997624;28;19924;-64
2022/02/28 11:35:24;;;;;;;;;;;;;;;5.16;70.52;101233.84;4996572;28;19969;-63
2022/02/28 11:38:31;;;;;;;;;;;;;;;5.16;70.48;101230.38;4997302;28;19925;-64
2022/02/28 11:41:18;;;;;;;;;;;;;;;5.18;70.55;101231.34;4996982;28;19925;-64
2022/02/28 11:44:02;;;;;;;;;;;;;;;5.18;70.61;101237.41;4995998;28;19972;-64
2022/02/28 11:46:49;;;;;;;;;;;;;;;5.19;70.99;101235.69;4996818;28;20300;-64
2022/02/28 11:49:40;;;;;;;;;;;;;;;5.19;70.82;101238.28;4996237;28;19925;-64
2022/02/28 11:52:34;;;;;;;;;;;;;;;5.19;70.62;101235.69;4996482;28;20311;-63
2022/02/28 11:55:18;;;;;;;;;;;;;;;5.20;71.00;101229.75;4996220;28;19924;-63
2022/02/28 11:58:08;;;;;;;;;;;;;;;5.21;70.10;101228.09;4995948;28;19924;-64
2022/02/28 12:01:06;;;;;;;;;;;;;;;5.23;70.78;101239.31;4996119;28;19944;-63
2022/02/28 12:03:53;;;;;;;;;;;;;;;5.23;70.29;101242.78;4995547;28;19925;-64
2022/02/28 12:06:50;;;;;;;;;;;;;;;5.23;70.97;101237.66;4995597;28;20415;-64
2022/02/28 12:09:37;;;;;;;;;;;;;;;5.24;70.19;101231.72;4995636;28;19984;-64
2022/02/28 12:12:21;;;;;;;;;;;;;;;5.25;70.55;101230.91;4996508;28;20423;-64
2022/02/28 12:15:08;;;;;;;;;;;;;;;5.24;70.75;101229.16;4995399;28;20056;-64
2022/02/28 12:17:56;;;;;;;;;;;;;;;5.25;70.41;101219.72;4996141;28;19981;-64
2022/02/28 12:20:41;;;;;;;;;;;;;;;5.24;70.29;101210.25;4995205;28;19964;-64
2022/02/28 12:23:30;;;;;;;;;;;;;;;5.25;70.26;101212.03;4995775;28;19925;-65
2022/02/28 12:26:14;;;;;;;;;;;;;;;5.23;70.34;101209.38;4996099;28;19941;-63
2022/02/28 12:29:12;;;;;;;;;;;;;;;5.24;70.32;101210.25;4995123;28;19968;-65
2022/02/28 12:31:59;;;;;;;;;;;;;;;5.26;70.38;101212.13;4995158;28;19972;-64
2022/02/28 12:34:57;;;;;;;;;;;;;;;5.26;70.19;101206.09;4995380;28;20290;-64
2022/02/28 12:37:41;;;;;;;;;;;;;;;5.25;70.06;101191.47;4994840;28;19968;-64
2022/02/28 12:40:28;;;;;;;;;;;;;;;5.24;71.05;101188.03;4995210;28;19924;-63
2022/02/28 12:43:14;;;;;;;;;;;;;;;5.24;70.40;101179.41;4995471;28;19925;-64
2022/02/28 12:46:00;;;;;;;;;;;;;;;5.24;71.05;101190.59;4995999;28;19964;-64
2022/02/28 12:48:47;;;;;;;;;;;;;;;5.23;70.40;101186.25;4995200;28;19948;-64
2022/02/28 12:51:34;;;;;;;;;;;;;;;5.25;70.32;101183.75;4994673;28;19989;-63
2022/02/28 12:54:20;;;;;;;;;;;;;;;5.25;70.38;101170.91;4994554;28;20285;-63
2022/02/28 12:57:04;;;;;;;;;;;;;;;5.24;70.50;101170.03;4994825;28;19925;-64
2022/02/28 12:59:51;;;;;;;;;;;;;;;5.24;70.36;101172.59;4995156;28;20309;-64
2022/02/28 13:02:37;;;;;;;;;;;;;;;5.24;70.49;101166.56;4994355;28;19968;-64
2022/02/28 13:05:27;;;;;;;;;;;;;;;5.23;70.11;101163.13;4995234;28;19924;-64
2022/02/28 13:08:11;;;;;;;;;;;;;;;5.24;70.36;101156.28;4994380;28;19925;-64
2022/02/28 13:11:14;;;;;;;;;;;;;;;5.25;70.37;101158.03;4994227;28;19968;-64
2022/02/28 13:14:00;;;;;;;;;;;;;;;5.24;71.02;101154.59;4994452;28;19924;-64
2022/02/28 13:16:45;;;;;;;;;;;;;;;5.25;70.55;101155.47;4993923;28;20400;-63
2022/02/28 13:19:31;;;;;;;;;;;;;;;5.24;70.56;101152.03;4995075;28;19925;-64
2022/02/28 13:22:23;;;;;;;;;;;;;;;5.24;70.76;101152.03;4994418;28;20269;-64
2022/02/28 13:25:12;;;;;;;;;;;;;;;5.26;70.42;101150.44;4994042;28;19976;-64
2022/02/28 13:27:56;;;;;;;;;;;;;;;5.25;70.47;101147.75;4994949;28;19940;-65
2022/02/28 13:30:43;;;;;;;;;;;;;;;5.26;71.15;101144.41;4995408;28;19975;-63
2022/02/28 13:33:29;;;;;;;;;;;;;;;5.26;71.40;101146.97;4994352;28;20019;-64
2022/02/28 13:36:14;;;;;;;;;;;;;;;5.26;70.43;101149.53;4994613;28;19929;-63
2022/02/28 13:38:58;;;;;;;;;;;;;;;5.27;70.88;101156.44;4993944;28;19925;-64
2022/02/28 13:41:42;;;;;;;;;;;;;;;5.28;70.78;101155.66;4994860;28;20496;-64
2022/02/28 13:44:32;;;;;;;;;;;;;;;5.28;71.23;101153.06;4994408;28;19924;-64
2022/02/28 13:47:22;;;;;;;;;;;;;;;5.28;70.92;101153.06;4994514;28;20017;-64
2022/02/28 13:50:06;;;;;;;;;;;;;;;5.27;70.39;101152.22;4993563;28;19979;-63
2022/02/28 13:53:01;;;;;;;;;;;;;;;5.27;70.56;101154.78;4994277;28;19979;-63
2022/02/28 13:55:46;;;;;;;;;;;;;;;5.27;70.67;101147.06;4994119;28;19924;-65
2022/02/28 13:58:30;;;;;;;;;;;;;;;5.28;70.38;101150.50;4994884;28;20017;-64
2022/02/28 14:01:16;;;;;;;;;;;;;;;5.29;70.85;101150.63;4994721;28;19925;-64
2022/02/28 14:04:03;;;;;;;;;;;;;;;5.28;71.03;101150.50;4993833;28;20317;-63
2022/02/28 14:06:57;;;;;;;;;;;;;;;5.29;70.78;101150.63;4993309;28;19971;-64
2022/02/28 14:09:48;;;;;;;;;;;;;;;5.29;70.81;101142.91;4993936;28;19928;-64
2022/02/28 14:12:38;;;;;;;;;;;;;;;5.29;71.00;101140.34;4994053;28;19925;-63
2022/02/28 14:15:23;;;;;;;;;;;;;;;5.30;70.53;101143.78;4994170;28;19925;-63
2022/02/28 14:18:08;;;;;;;;;;;;;;;5.31;71.18;101142.97;4994006;28;19960;-64
2022/02/28 14:20:53;;;;;;;;;;;;;;;5.29;70.48;101129.16;4994690;28;19960;-64
2022/02/28 14:23:47;;;;;;;;;;;;;;;5.29;71.54;101124.91;4993442;28;19928;-63